sensor_id;sensor_type;location;lat;lon;timestamp;pressure;altitude;pressure_sealevel;temperature;humidity
11936;BME280;6027;48.576;9.180;2023-05-24T00:00:39;97126.28;;;14.26;100.00
11936;BME280;6027;48.576;9.180;2023-05-24T00:03:06;97127.94;;;14.27;100.00
11936;BME280;6027;48.576;9.180;2023-05-24T00:05:32;97132.25;;;14.28;100.00
11936;BME280;6027;48.576;9.180;2023-05-24T00:07:58;97126.28;;;14.26;100.00
11936;BME280;6027;48.576;9.180;2023-05-24T00:10:24;97121.59;;;14.28;100.00
11936;BME280;6027;48.576;9.180;2023-05-24T00:12:50;97121.78;;;14.20;100.00
11936;BME280;6027;48.576;9.180;2023-05-24T00:15:15;97128.56;;;14.23;99.84
11936;BME280;6027;48.576;9.180;2023-05-24T00:17:41;97115.25;;;14.23;100.00
11936;BME280;6027;48.576;9.180;2023-05-24T00:20:10;97124.41;;;14.13;100.00
11936;BME280;6027;48.576;9.180;2023-05-24T00:22:36;97119.94;;;14.21;100.00
11936;BME280;6027;48.576;9.180;2023-05-24T00:25:02;97115.84;;;14.18;99.55
11936;BME280;6027;48.576;9.180;2023-05-24T00:27:28;97117.47;;;14.19;99.61
11936;BME280;6027;48.576;9.180;2023-05-24T00:29:54;97122.75;;;14.12;99.49
11936;BME280;6027;48.576;9.180;2023-05-24T00:32:19;97120.94;;;14.13;100.00
11936;BME280;6027;48.576;9.180;2023-05-24T00:34:45;97123.59;;;14.13;100.00
11936;BME280;6027;48.576;9.180;2023-05-24T00:37:10;97124.41;;;14.13;99.16
11936;BME280;6027;48.576;9.180;2023-05-24T00:39:37;97116.81;;;14.10;99.20
11936;BME280;6027;48.576;9.180;2023-05-24T00:42:02;97117.81;;;14.03;99.13
11936;BME280;6027;48.576;9.180;2023-05-24T00:44:28;97115.56;;;14.06;99.13
11936;BME280;6027;48.576;9.180;2023-05-24T00:46:54;97124.34;;;14.00;99.09
11936;BME280;6027;48.576;9.180;2023-05-24T00:49:20;97116.19;;;14.02;99.24
11936;BME280;6027;48.576;9.180;2023-05-24T00:51:47;97114.50;;;13.94;97.93
11936;BME280;6027;48.576;9.180;2023-05-24T00:54:13;97115.13;;;13.96;97.79
11936;BME280;6027;48.576;9.180;2023-05-24T00:56:40;97112.88;;;14.00;96.80
11936;BME280;6027;48.576;9.180;2023-05-24T00:59:05;97103.66;;;13.96;96.63
11936;BME280;6027;48.576;9.180;2023-05-24T01:01:31;97114.91;;;13.98;97.26
11936;BME280;6027;48.576;9.180;2023-05-24T01:03:59;97109.59;;;13.98;95.18
11936;BME280;6027;48.576;9.180;2023-05-24T01:06:26;97119.78;;;13.88;95.21
11936;BME280;6027;48.576;9.180;2023-05-24T01:09:08;97102.97;;;13.87;95.63
11936;BME280;6027;48.576;9.180;2023-05-24T01:17:27;97116.47;;;13.79;94.77
11936;BME280;6027;48.576;9.180;2023-05-24T01:20:05;97122.22;;;13.82;94.54
11936;BME280;6027;48.576;9.180;2023-05-24T01:28:15;97119.00;;;13.94;92.81
11936;BME280;6027;48.576;9.180;2023-05-24T01:30:42;97114.88;;;13.91;91.95
11936;BME280;6027;48.576;9.180;2023-05-24T01:33:08;97111.34;;;13.77;92.12
11936;BME280;6027;48.576;9.180;2023-05-24T01:35:34;97109.06;;;13.74;92.10
11936;BME280;6027;48.576;9.180;2023-05-24T01:38:05;97114.00;;;13.77;90.82
11936;BME280;6027;48.576;9.180;2023-05-24T01:40:30;97111.47;;;13.69;90.01
11936;BME280;6027;48.576;9.180;2023-05-24T01:47:55;97111.28;;;13.64;87.92
11936;BME280;6027;48.576;9.180;2023-05-24T01:50:26;97106.22;;;13.76;87.82
11936;BME280;6027;48.576;9.180;2023-05-24T01:52:53;97106.97;;;13.70;86.81
11936;BME280;6027;48.576;9.180;2023-05-24T01:55:21;97108.81;;;13.63;87.38
11936;BME280;6027;48.576;9.180;2023-05-24T01:57:49;97103.03;;;13.59;86.57
11936;BME280;6027;48.576;9.180;2023-05-24T02:00:19;97102.84;;;13.61;85.36
11936;BME280;6027;48.576;9.180;2023-05-24T02:02:45;97107.94;;;13.56;83.80
11936;BME280;6027;48.576;9.180;2023-05-24T02:05:10;97113.31;;;13.62;83.31
11936;BME280;6027;48.576;9.180;2023-05-24T02:07:36;97107.72;;;13.57;82.88
11936;BME280;6027;48.576;9.180;2023-05-24T02:10:02;97107.16;;;13.62;81.84
11936;BME280;6027;48.576;9.180;2023-05-24T02:12:28;97095.88;;;13.60;81.69
11936;BME280;6027;48.576;9.180;2023-05-24T02:14:53;97109.81;;;13.62;82.36
11936;BME280;6027;48.576;9.180;2023-05-24T02:17:20;97102.22;;;13.59;82.00
11936;BME280;6027;48.576;9.180;2023-05-24T02:19:45;97106.72;;;13.58;82.28
11936;BME280;6027;48.576;9.180;2023-05-24T02:22:10;97108.94;;;13.55;82.73
11936;BME280;6027;48.576;9.180;2023-05-24T02:24:37;97112.09;;;13.37;83.90
11936;BME280;6027;48.576;9.180;2023-05-24T02:27:04;97106.84;;;13.43;84.29
11936;BME280;6027;48.576;9.180;2023-05-24T02:29:30;97107.94;;;13.28;84.52
11936;BME280;6027;48.576;9.180;2023-05-24T02:31:55;97107.22;;;13.40;83.68
11936;BME280;6027;48.576;9.180;2023-05-24T02:34:21;97109.69;;;13.42;83.46
11936;BME280;6027;48.576;9.180;2023-05-24T02:36:48;97102.28;;;13.37;82.91
11936;BME280;6027;48.576;9.180;2023-05-24T02:39:13;97103.50;;;13.35;82.58
11936;BME280;6027;48.576;9.180;2023-05-24T02:41:39;97109.56;;;13.29;83.41
11936;BME280;6027;48.576;9.180;2023-05-24T02:44:05;97114.31;;;13.33;83.25
11936;BME280;6027;48.576;9.180;2023-05-24T02:46:30;97113.66;;;13.25;84.20
11936;BME280;6027;48.576;9.180;2023-05-24T02:48:56;97114.84;;;13.22;84.41
11936;BME280;6027;48.576;9.180;2023-05-24T02:51:21;97108.16;;;13.05;84.53
11936;BME280;6027;48.576;9.180;2023-05-24T02:53:46;97108.91;;;12.99;85.20
11936;BME280;6027;48.576;9.180;2023-05-24T02:56:12;97113.22;;;13.00;84.86
11936;BME280;6027;48.576;9.180;2023-05-24T02:58:38;97109.34;;;13.02;84.52
11936;BME280;6027;48.576;9.180;2023-05-24T03:01:06;97114.03;;;13.00;84.04
11936;BME280;6027;48.576;9.180;2023-05-24T03:03:32;97114.16;;;12.92;84.36
11936;BME280;6027;48.576;9.180;2023-05-24T03:05:58;97108.41;;;12.89;84.55
11936;BME280;6027;48.576;9.180;2023-05-24T03:08:23;97108.00;;;12.92;84.97
11936;BME280;6027;48.576;9.180;2023-05-24T03:10:49;97115.59;;;12.95;85.58
11936;BME280;6027;48.576;9.180;2023-05-24T03:13:14;97113.13;;;12.93;86.07
11936;BME280;6027;48.576;9.180;2023-05-24T03:15:39;97109.16;;;13.04;85.25
11936;BME280;6027;48.576;9.180;2023-05-24T03:18:05;97106.44;;;12.97;85.59
11936;BME280;6027;48.576;9.180;2023-05-24T03:20:30;97114.22;;;12.99;84.80
11936;BME280;6027;48.576;9.180;2023-05-24T03:22:57;97118.81;;;12.90;85.25
11936;BME280;6027;48.576;9.180;2023-05-24T03:25:23;97110.56;;;12.78;85.34
11936;BME280;6027;48.576;9.180;2023-05-24T03:27:48;97108.53;;;12.80;85.67
11936;BME280;6027;48.576;9.180;2023-05-24T03:30:14;97115.13;;;12.85;85.56
11936;BME280;6027;48.576;9.180;2023-05-24T03:32:39;97113.22;;;12.78;86.39
11936;BME280;6027;48.576;9.180;2023-05-24T03:35:05;97119.28;;;12.72;87.18
11936;BME280;6027;48.576;9.180;2023-05-24T03:37:30;97118.88;;;12.69;86.64
11936;BME280;6027;48.576;9.180;2023-05-24T03:39:56;97118.91;;;12.75;86.11
11936;BME280;6027;48.576;9.180;2023-05-24T03:42:21;97117.97;;;12.62;87.37
11936;BME280;6027;48.576;9.180;2023-05-24T03:44:47;97126.75;;;12.62;87.52
11936;BME280;6027;48.576;9.180;2023-05-24T03:47:12;97124.09;;;12.62;88.09
11936;BME280;6027;48.576;9.180;2023-05-24T03:49:38;97126.75;;;12.62;87.95
11936;BME280;6027;48.576;9.180;2023-05-24T03:52:04;97121.25;;;12.64;88.46
11936;BME280;6027;48.576;9.180;2023-05-24T03:54:29;97124.91;;;12.63;87.91
11936;BME280;6027;48.576;9.180;2023-05-24T03:56:55;97112.09;;;12.66;87.95
11936;BME280;6027;48.576;9.180;2023-05-24T03:59:20;97119.34;;;12.58;88.27
11936;BME280;6027;48.576;9.180;2023-05-24T04:01:46;97135.53;;;12.63;89.95
11936;BME280;6027;48.576;9.180;2023-05-24T04:04:12;97124.19;;;12.69;89.87
11936;BME280;6027;48.576;9.180;2023-05-24T04:06:37;97128.03;;;12.66;89.34
11936;BME280;6027;48.576;9.180;2023-05-24T04:09:06;97133.72;;;12.63;89.29
11936;BME280;6027;48.576;9.180;2023-05-24T04:11:31;97134.00;;;12.54;89.68
11936;BME280;6027;48.576;9.180;2023-05-24T04:13:57;97135.78;;;12.47;90.10
11936;BME280;6027;48.576;9.180;2023-05-24T04:16:26;97124.97;;;12.48;89.48
11936;BME280;6027;48.576;9.180;2023-05-24T04:18:53;97130.53;;;12.53;89.58
11936;BME280;6027;48.576;9.180;2023-05-24T04:21:20;97128.50;;;12.55;89.92
11936;BME280;6027;48.576;9.180;2023-05-24T04:23:45;97129.13;;;12.57;90.18
11936;BME280;6027;48.576;9.180;2023-05-24T04:26:12;97123.66;;;12.59;89.75
11936;BME280;6027;48.576;9.180;2023-05-24T04:28:38;97122.75;;;12.52;90.35
11936;BME280;6027;48.576;9.180;2023-05-24T04:31:04;97128.44;;;12.49;89.68
11936;BME280;6027;48.576;9.180;2023-05-24T04:35:58;97123.16;;;12.49;89.49
11936;BME280;6027;48.576;9.180;2023-05-24T04:38:31;97126.44;;;12.51;89.43
11936;BME280;6027;48.576;9.180;2023-05-24T04:40:58;97109.69;;;12.35;89.94
11936;BME280;6027;48.576;9.180;2023-05-24T04:43:24;97124.91;;;12.41;89.84
11936;BME280;6027;48.576;9.180;2023-05-24T04:45:53;97123.97;;;12.49;89.90
11936;BME280;6027;48.576;9.180;2023-05-24T04:48:20;97122.75;;;12.52;89.73
11936;BME280;6027;48.576;9.180;2023-05-24T04:50:50;97126.03;;;12.54;90.13
11936;BME280;6027;48.576;9.180;2023-05-24T04:53:16;97119.59;;;12.41;90.06
11936;BME280;6027;48.576;9.180;2023-05-24T04:55:42;97126.81;;;12.48;89.81
11936;BME280;6027;48.576;9.180;2023-05-24T04:58:07;97113.94;;;12.51;90.21
11936;BME280;6027;48.576;9.180;2023-05-24T05:00:33;97117.75;;;12.42;90.52
11936;BME280;6027;48.576;9.180;2023-05-24T05:02:58;97125.06;;;12.40;90.09
11936;BME280;6027;48.576;9.180;2023-05-24T05:05:24;97127.38;;;12.43;90.02
11936;BME280;6027;48.576;9.180;2023-05-24T05:07:49;97136.53;;;12.40;90.55
11936;BME280;6027;48.576;9.180;2023-05-24T05:10:15;97133.88;;;12.40;90.14
11936;BME280;6027;48.576;9.180;2023-05-24T05:12:40;97134.22;;;12.37;89.98
11936;BME280;6027;48.576;9.180;2023-05-24T05:15:06;97133.59;;;12.35;90.45
11936;BME280;6027;48.576;9.180;2023-05-24T05:17:32;97139.38;;;12.39;91.23
11936;BME280;6027;48.576;9.180;2023-05-24T05:19:57;97139.50;;;12.31;91.48
11936;BME280;6027;48.576;9.180;2023-05-24T05:22:23;97140.31;;;12.31;91.01
11936;BME280;6027;48.576;9.180;2023-05-24T05:24:49;97145.94;;;12.43;90.87
11936;BME280;6027;48.576;9.180;2023-05-24T05:27:14;97145.03;;;12.36;91.02
11936;BME280;6027;48.576;9.180;2023-05-24T05:29:43;97147.16;;;12.40;91.70
11936;BME280;6027;48.576;9.180;2023-05-24T05:32:08;97149.06;;;12.32;91.16
11936;BME280;6027;48.576;9.180;2023-05-24T05:34:34;97145.41;;;12.33;91.11
11936;BME280;6027;48.576;9.180;2023-05-24T05:36:59;97145.63;;;12.31;92.95
11936;BME280;6027;48.576;9.180;2023-05-24T05:39:25;97135.63;;;12.33;92.48
11936;BME280;6027;48.576;9.180;2023-05-24T05:41:51;97149.16;;;12.38;92.00
11936;BME280;6027;48.576;9.180;2023-05-24T05:44:16;97147.16;;;12.40;92.84
11936;BME280;6027;48.576;9.180;2023-05-24T05:46:42;97147.47;;;12.52;92.22
11936;BME280;6027;48.576;9.180;2023-05-24T05:49:11;97149.25;;;12.45;91.14
11936;BME280;6027;48.576;9.180;2023-05-24T05:51:38;97150.63;;;12.41;92.14
11936;BME280;6027;48.576;9.180;2023-05-24T05:54:04;97155.09;;;12.40;91.93
11936;BME280;6027;48.576;9.180;2023-05-24T05:56:29;97149.00;;;12.25;92.29
11936;BME280;6027;48.576;9.180;2023-05-24T05:58:55;97147.63;;;12.29;92.87
11936;BME280;6027;48.576;9.180;2023-05-24T06:01:20;97152.94;;;12.29;92.76
11936;BME280;6027;48.576;9.180;2023-05-24T06:03:46;97145.72;;;12.23;93.01
11936;BME280;6027;48.576;9.180;2023-05-24T06:06:11;97151.47;;;12.27;93.38
11936;BME280;6027;48.576;9.180;2023-05-24T06:08:37;97158.63;;;12.26;93.22
11936;BME280;6027;48.576;9.180;2023-05-24T06:11:05;97160.81;;;12.23;93.57
11936;BME280;6027;48.576;9.180;2023-05-24T06:13:30;97155.78;;;12.28;93.82
11936;BME280;6027;48.576;9.180;2023-05-24T06:15:57;97148.28;;;12.31;92.88
11936;BME280;6027;48.576;9.180;2023-05-24T06:18:23;97146.63;;;12.30;91.46
11936;BME280;6027;48.576;9.180;2023-05-24T06:20:50;97134.94;;;12.10;91.80
11936;BME280;6027;48.576;9.180;2023-05-24T06:23:16;97151.47;;;12.27;91.86
11936;BME280;6027;48.576;9.180;2023-05-24T06:25:41;97143.53;;;12.27;91.90
11936;BME280;6027;48.576;9.180;2023-05-24T06:28:08;97156.16;;;12.25;92.54
11936;BME280;6027;48.576;9.180;2023-05-24T06:30:34;97154.69;;;12.22;92.26
11936;BME280;6027;48.576;9.180;2023-05-24T06:32:59;97140.78;;;12.20;92.44
11936;BME280;6027;48.576;9.180;2023-05-24T06:35:25;97160.00;;;12.22;92.77
11936;BME280;6027;48.576;9.180;2023-05-24T06:37:51;97158.91;;;12.31;92.63
11936;BME280;6027;48.576;9.180;2023-05-24T06:40:16;97151.13;;;12.30;92.21
11936;BME280;6027;48.576;9.180;2023-05-24T06:42:42;97156.31;;;12.38;91.61
11936;BME280;6027;48.576;9.180;2023-05-24T06:45:08;97155.84;;;12.34;91.95
11936;BME280;6027;48.576;9.180;2023-05-24T06:47:33;97161.91;;;12.28;90.92
11936;BME280;6027;48.576;9.180;2023-05-24T06:49:59;97156.66;;;12.35;91.42
11936;BME280;6027;48.576;9.180;2023-05-24T06:52:25;97167.38;;;12.41;92.00
11936;BME280;6027;48.576;9.180;2023-05-24T06:54:51;97163.06;;;12.40;92.50
11936;BME280;6027;48.576;9.180;2023-05-24T06:57:16;97168.09;;;12.50;92.28
11936;BME280;6027;48.576;9.180;2023-05-24T06:59:42;97167.69;;;12.53;91.54
11936;BME280;6027;48.576;9.180;2023-05-24T07:02:08;97159.50;;;12.48;90.59
11936;BME280;6027;48.576;9.180;2023-05-24T07:04:52;97175.31;;;12.56;90.64
11936;BME280;6027;48.576;9.180;2023-05-24T07:07:18;97172.19;;;12.53;89.80
11936;BME280;6027;48.576;9.180;2023-05-24T07:09:44;97169.13;;;12.49;89.54
11936;BME280;6027;48.576;9.180;2023-05-24T07:12:10;97172.19;;;12.53;88.73
11936;BME280;6027;48.576;9.180;2023-05-24T07:14:35;97176.25;;;12.49;89.83
11936;BME280;6027;48.576;9.180;2023-05-24T07:17:01;97177.44;;;12.46;90.04
11936;BME280;6027;48.576;9.180;2023-05-24T07:19:26;97178.09;;;12.48;91.34
11936;BME280;6027;48.576;9.180;2023-05-24T07:21:54;97185.22;;;12.48;90.82
11936;BME280;6027;48.576;9.180;2023-05-24T07:24:21;97172.97;;;12.47;90.33
11936;BME280;6027;48.576;9.180;2023-05-24T07:26:47;97182.25;;;12.57;90.67
11936;BME280;6027;48.576;9.180;2023-05-24T07:29:13;97182.53;;;12.62;90.69
11936;BME280;6027;48.576;9.180;2023-05-24T07:31:38;97189.56;;;12.70;90.57
11936;BME280;6027;48.576;9.180;2023-05-24T07:34:03;97202.66;;;12.71;89.53
11936;BME280;6027;48.576;9.180;2023-05-24T07:36:29;97197.00;;;12.60;88.89
11936;BME280;6027;48.576;9.180;2023-05-24T07:38:56;97198.28;;;12.64;88.85
11936;BME280;6027;48.576;9.180;2023-05-24T07:41:27;97204.47;;;12.71;88.40
11936;BME280;6027;48.576;9.180;2023-05-24T07:43:54;97201.88;;;12.56;89.50
11936;BME280;6027;48.576;9.180;2023-05-24T07:46:19;97203.19;;;12.45;89.32
11936;BME280;6027;48.576;9.180;2023-05-24T07:48:45;97206.91;;;12.51;89.44
11936;BME280;6027;48.576;9.180;2023-05-24T07:51:11;97211.41;;;12.51;89.27
11936;BME280;6027;48.576;9.180;2023-05-24T07:53:36;97206.53;;;12.54;90.29
11936;BME280;6027;48.576;9.180;2023-05-24T07:56:02;97217.25;;;12.61;89.67
11936;BME280;6027;48.576;9.180;2023-05-24T07:58:27;97223.94;;;12.57;89.99
11936;BME280;6027;48.576;9.180;2023-05-24T08:03:21;97228.59;;;12.69;89.56
11936;BME280;6027;48.576;9.180;2023-05-24T08:05:49;97223.19;;;12.63;89.28
11936;BME280;6027;48.576;9.180;2023-05-24T08:08:14;97225.59;;;12.58;90.93
11936;BME280;6027;48.576;9.180;2023-05-24T08:10:40;97223.84;;;12.65;92.44
11936;BME280;6027;48.576;9.180;2023-05-24T08:13:05;97228.34;;;12.64;90.13
11936;BME280;6027;48.576;9.180;2023-05-24T08:15:31;97217.97;;;12.55;89.07
11936;BME280;6027;48.576;9.180;2023-05-24T08:17:57;97225.31;;;12.53;90.23
11936;BME280;6027;48.576;9.180;2023-05-24T08:20:22;97229.91;;;12.44;89.36
11936;BME280;6027;48.576;9.180;2023-05-24T08:22:48;97226.81;;;12.40;89.57
11936;BME280;6027;48.576;9.180;2023-05-24T08:25:14;97224.78;;;12.42;89.71
11936;BME280;6027;48.576;9.180;2023-05-24T08:27:40;97234.69;;;12.49;89.97
11936;BME280;6027;48.576;9.180;2023-05-24T08:30:06;97235.31;;;12.51;90.01
11936;BME280;6027;48.576;9.180;2023-05-24T08:32:32;97243.63;;;12.62;90.05
11936;BME280;6027;48.576;9.180;2023-05-24T08:34:58;97244.28;;;12.64;88.67
11936;BME280;6027;48.576;9.180;2023-05-24T08:37:23;97242.63;;;12.63;88.12
11936;BME280;6027;48.576;9.180;2023-05-24T08:39:49;97246.75;;;12.66;89.62
11936;BME280;6027;48.576;9.180;2023-05-24T08:42:15;97249.13;;;12.61;89.54
11936;BME280;6027;48.576;9.180;2023-05-24T08:44:47;97238.88;;;12.58;89.58
11936;BME280;6027;48.576;9.180;2023-05-24T08:47:19;97247.81;;;12.71;87.79
11936;BME280;6027;48.576;9.180;2023-05-24T08:49:46;97250.69;;;12.70;88.67
11936;BME280;6027;48.576;9.180;2023-05-24T08:52:11;97246.28;;;12.62;86.68
11936;BME280;6027;48.576;9.180;2023-05-24T08:54:37;97242.63;;;12.63;86.86
11936;BME280;6027;48.576;9.180;2023-05-24T08:57:03;97245.09;;;12.65;86.65
11936;BME280;6027;48.576;9.180;2023-05-24T08:59:29;97246.81;;;12.72;86.50
11936;BME280;6027;48.576;9.180;2023-05-24T09:01:56;97246.06;;;12.78;86.37
11936;BME280;6027;48.576;9.180;2023-05-24T09:04:22;97247.25;;;12.76;86.75
11936;BME280;6027;48.576;9.180;2023-05-24T09:06:48;97249.53;;;12.79;85.84
11936;BME280;6027;48.576;9.180;2023-05-24T09:09:17;97252.84;;;12.81;86.45
11936;BME280;6027;48.576;9.180;2023-05-24T09:11:44;97244.50;;;12.84;86.04
11936;BME280;6027;48.576;9.180;2023-05-24T09:14:12;97242.78;;;12.76;86.64
11936;BME280;6027;48.576;9.180;2023-05-24T09:16:38;97244.41;;;12.77;83.90
11936;BME280;6027;48.576;9.180;2023-05-24T09:19:03;97232.88;;;12.85;85.10
11936;BME280;6027;48.576;9.180;2023-05-24T09:21:29;97236.94;;;13.02;85.83
11936;BME280;6027;48.576;9.180;2023-05-24T09:23:54;97240.22;;;13.04;84.51
11936;BME280;6027;48.576;9.180;2023-05-24T09:26:20;97243.94;;;13.10;82.94
11936;BME280;6027;48.576;9.180;2023-05-24T09:28:46;97238.25;;;13.13;82.67
11936;BME280;6027;48.576;9.180;2023-05-24T09:31:12;97239.75;;;13.16;80.40
11936;BME280;6027;48.576;9.180;2023-05-24T09:33:38;97248.00;;;13.21;79.63
11936;BME280;6027;48.576;9.180;2023-05-24T09:36:04;97243.69;;;13.20;79.88
11936;BME280;6027;48.576;9.180;2023-05-24T09:38:31;97235.63;;;13.34;80.22
11936;BME280;6027;48.576;9.180;2023-05-24T09:41:04;97246.97;;;13.43;80.78
11936;BME280;6027;48.576;9.180;2023-05-24T09:43:31;97239.00;;;13.43;78.18
11936;BME280;6027;48.576;9.180;2023-05-24T09:46:01;97253.38;;;13.27;78.84
11936;BME280;6027;48.576;9.180;2023-05-24T09:48:27;97246.34;;;13.20;77.04
11936;BME280;6027;48.576;9.180;2023-05-24T09:51:05;97247.72;;;13.16;76.86
11936;BME280;6027;48.576;9.180;2023-05-24T09:53:33;97249.38;;;13.17;80.31
11936;BME280;6027;48.576;9.180;2023-05-24T09:55:59;97249.06;;;13.26;78.63
11936;BME280;6027;48.576;9.180;2023-05-24T09:58:30;97242.53;;;13.29;76.89
11936;BME280;6027;48.576;9.180;2023-05-24T10:01:09;97245.97;;;13.23;77.03
11936;BME280;6027;48.576;9.180;2023-05-24T10:03:56;97249.94;;;13.33;76.80
11936;BME280;6027;48.576;9.180;2023-05-24T10:06:23;97251.78;;;13.33;77.44
11936;BME280;6027;48.576;9.180;2023-05-24T10:08:50;97242.94;;;13.26;77.85
11936;BME280;6027;48.576;9.180;2023-05-24T10:11:21;97251.50;;;13.28;78.75
11936;BME280;6027;48.576;9.180;2023-05-24T10:13:47;97252.03;;;13.17;76.12
11936;BME280;6027;48.576;9.180;2023-05-24T10:16:14;97245.69;;;13.18;76.91
11936;BME280;6027;48.576;9.180;2023-05-24T10:18:39;97252.03;;;13.17;78.80
11936;BME280;6027;48.576;9.180;2023-05-24T10:21:06;97246.72;;;13.17;78.70
11936;BME280;6027;48.576;9.180;2023-05-24T10:23:38;97246.75;;;13.02;79.15
11936;BME280;6027;48.576;9.180;2023-05-24T10:26:09;97239.84;;;13.07;80.17
11936;BME280;6027;48.576;9.180;2023-05-24T10:28:44;97246.38;;;13.05;77.71
11936;BME280;6027;48.576;9.180;2023-05-24T10:31:18;97248.13;;;12.98;73.46
11936;BME280;6027;48.576;9.180;2023-05-24T10:33:46;97253.25;;;12.99;74.86
11936;BME280;6027;48.576;9.180;2023-05-24T10:36:13;97248.03;;;12.91;78.01
11936;BME280;6027;48.576;9.180;2023-05-24T10:38:45;97253.53;;;13.04;78.32
11936;BME280;6027;48.576;9.180;2023-05-24T10:41:11;97250.50;;;13.07;77.71
11936;BME280;6027;48.576;9.180;2023-05-24T10:43:37;97247.44;;;13.10;78.53
11936;BME280;6027;48.576;9.180;2023-05-24T10:46:04;97245.59;;;13.11;76.96
11936;BME280;6027;48.576;9.180;2023-05-24T10:48:36;97237.56;;;13.04;76.40
11936;BME280;6027;48.576;9.180;2023-05-24T10:51:32;97242.75;;;13.12;75.62
11936;BME280;6027;48.576;9.180;2023-05-24T10:54:10;97240.38;;;13.18;77.14
11936;BME280;6027;48.576;9.180;2023-05-24T10:56:44;97249.38;;;13.17;76.04
11936;BME280;6027;48.576;9.180;2023-05-24T10:59:42;97244.41;;;13.13;74.25
11936;BME280;6027;48.576;9.180;2023-05-24T11:02:09;97251.53;;;13.13;75.82
11936;BME280;6027;48.576;9.180;2023-05-24T11:04:40;97250.72;;;13.12;75.93
11936;BME280;6027;48.576;9.180;2023-05-24T11:07:08;97246.41;;;13.11;76.37
11936;BME280;6027;48.576;9.180;2023-05-24T11:09:35;97243.06;;;13.03;75.67
11936;BME280;6027;48.576;9.180;2023-05-24T11:12:03;97237.94;;;13.01;76.17
11936;BME280;6027;48.576;9.180;2023-05-24T11:14:35;97246.56;;;13.03;76.99
11936;BME280;6027;48.576;9.180;2023-05-24T11:17:01;97237.56;;;13.04;76.04
11936;BME280;6027;48.576;9.180;2023-05-24T11:19:36;97237.31;;;12.99;75.80
11936;BME280;6027;48.576;9.180;2023-05-24T11:22:05;97234.00;;;12.97;77.39
11936;BME280;6027;48.576;9.180;2023-05-24T11:24:32;97232.22;;;12.83;77.04
11936;BME280;6027;48.576;9.180;2023-05-24T11:26:58;97233.09;;;12.90;77.48
11936;BME280;6027;48.576;9.180;2023-05-24T11:29:24;97224.53;;;12.88;77.55
11936;BME280;6027;48.576;9.180;2023-05-24T11:31:52;97238.03;;;12.93;78.30
11936;BME280;6027;48.576;9.180;2023-05-24T11:36:46;97225.22;;;12.97;77.95
11936;BME280;6027;48.576;9.180;2023-05-24T11:39:13;97224.06;;;12.85;77.81
11936;BME280;6027;48.576;9.180;2023-05-24T11:41:39;97227.09;;;12.82;78.55
11936;BME280;6027;48.576;9.180;2023-05-24T11:44:07;97231.91;;;12.93;79.50
11936;BME280;6027;48.576;9.180;2023-05-24T11:46:33;97233.94;;;12.91;79.90
11936;BME280;6027;48.576;9.180;2023-05-24T11:48:59;97228.75;;;12.83;82.07
11936;BME280;6027;48.576;9.180;2023-05-24T11:51:26;97233.09;;;12.90;81.31
11936;BME280;6027;48.576;9.180;2023-05-24T11:53:52;97229.44;;;12.91;78.31
11936;BME280;6027;48.576;9.180;2023-05-24T11:56:17;97230.66;;;12.89;78.84
11936;BME280;6027;48.576;9.180;2023-05-24T11:58:49;97231.72;;;12.94;76.61
11936;BME280;6027;48.576;9.180;2023-05-24T12:01:27;97225.53;;;12.87;78.11
11936;BME280;6027;48.576;9.180;2023-05-24T12:03:53;97228.63;;;12.91;78.38
11936;BME280;6027;48.576;9.180;2023-05-24T12:06:19;97233.19;;;12.97;78.54
11936;BME280;6027;48.576;9.180;2023-05-24T12:08:46;97230.34;;;12.98;84.96
11936;BME280;6027;48.576;9.180;2023-05-24T12:11:13;97225.53;;;13.08;78.34
11936;BME280;6027;48.576;9.180;2023-05-24T12:13:39;97229.13;;;13.16;77.43
11936;BME280;6027;48.576;9.180;2023-05-24T12:16:05;97228.19;;;13.08;73.83
11936;BME280;6027;48.576;9.180;2023-05-24T12:18:31;97221.63;;;13.04;74.38
11936;BME280;6027;48.576;9.180;2023-05-24T12:20:57;97224.78;;;13.14;70.81
11936;BME280;6027;48.576;9.180;2023-05-24T12:23:24;97223.06;;;13.22;69.23
11936;BME280;6027;48.576;9.180;2023-05-24T12:25:59;97226.56;;;13.29;70.87
11936;BME280;6027;48.576;9.180;2023-05-24T12:28:25;97229.88;;;13.31;68.59
11936;BME280;6027;48.576;9.180;2023-05-24T12:30:52;97222.16;;;13.36;70.19
11936;BME280;6027;48.576;9.180;2023-05-24T12:33:18;97222.59;;;13.39;69.16
11936;BME280;6027;48.576;9.180;2023-05-24T12:35:45;97212.22;;;13.44;67.33
11936;BME280;6027;48.576;9.180;2023-05-24T12:38:11;97216.09;;;13.48;66.57
11936;BME280;6027;48.576;9.180;2023-05-24T12:40:41;97213.97;;;13.37;66.36
11936;BME280;6027;48.576;9.180;2023-05-24T12:43:08;97216.31;;;13.47;66.73
11936;BME280;6027;48.576;9.180;2023-05-24T12:45:34;97209.22;;;13.54;65.81
11936;BME280;6027;48.576;9.180;2023-05-24T12:48:01;97214.59;;;13.61;65.49
11936;BME280;6027;48.576;9.180;2023-05-24T12:50:29;97217.53;;;13.72;66.28
11936;BME280;6027;48.576;9.180;2023-05-24T12:52:55;97212.97;;;13.66;67.51
11936;BME280;6027;48.576;9.180;2023-05-24T12:55:25;97227.72;;;13.62;65.60
11936;BME280;6027;48.576;9.180;2023-05-24T12:57:51;97225.78;;;13.77;64.28
11936;BME280;6027;48.576;9.180;2023-05-24T13:00:19;97221.59;;;13.68;60.05
11936;BME280;6027;48.576;9.180;2023-05-24T13:02:45;97215.22;;;13.63;62.33
11936;BME280;6027;48.576;9.180;2023-05-24T13:05:11;97204.59;;;13.63;61.40
11936;BME280;6027;48.576;9.180;2023-05-24T13:07:37;97201.44;;;13.80;61.40
11936;BME280;6027;48.576;9.180;2023-05-24T13:10:03;97202.84;;;13.76;58.77
11936;BME280;6027;48.576;9.180;2023-05-24T13:12:29;97194.66;;;13.78;62.05
11936;BME280;6027;48.576;9.180;2023-05-24T13:14:54;97192.19;;;13.76;60.08
11936;BME280;6027;48.576;9.180;2023-05-24T13:17:20;97185.28;;;13.89;64.64
11936;BME280;6027;48.576;9.180;2023-05-24T13:19:45;97191.69;;;13.94;62.16
11936;BME280;6027;48.576;9.180;2023-05-24T13:22:12;97190.72;;;14.02;60.57
11936;BME280;6027;48.576;9.180;2023-05-24T13:24:38;97186.25;;;14.09;60.51
11936;BME280;6027;48.576;9.180;2023-05-24T13:27:03;97183.66;;;14.22;60.54
11936;BME280;6027;48.576;9.180;2023-05-24T13:29:29;97183.47;;;14.24;58.94
11936;BME280;6027;48.576;9.180;2023-05-24T13:31:54;97181.88;;;14.36;58.23